Hiram, Maine
Current Conditions -  °F | °C
As of 12:38 PM on Thursday 23 Oct 2014 (Local Time) from KIZG Reporting Station
Light Rain Light Rain  
Wind Chill: 43°   Ceiling: 1000
Heat Index: 48°   Visibility: 3mi
Dew Point: 46°   Wind: 12mph
Humidity: 93%   Direction: 10°N
Pressure: 29.85"   Gusts: NA
Location:  43.81°N, 70.87°W
Report Text: KIZG 231638Z AUTO 01010KT 3SM -RA BR BKN010 OVC015 09/08 A2985 RMK AO2 CIG 006V013 P0003 T00890078
Loading
Personal Weather Stations






























Interactive Weather Map
Tropical Storm Tracking
New forecast layout! Learn more

10-Day Weather Forecast

Advertisements
Track Severe Weather on mobile